sensor_id;sensor_type;location;lat;lon;timestamp;pressure;altitude;pressure_sealevel;temperature;humidity
60646;BME280;46462;32.608;-117.032;2023-09-07T00:01:00;99220.63;;;27.03;50.21
60646;BME280;46462;32.608;-117.032;2023-09-07T00:03:30;99221.69;;;27.08;50.09
60646;BME280;46462;32.608;-117.032;2023-09-07T00:06:01;99220.16;;;27.12;49.96
60646;BME280;46462;32.608;-117.032;2023-09-07T00:08:31;99217.48;;;27.18;49.91
60646;BME280;46462;32.608;-117.032;2023-09-07T00:11:06;99212.86;;;27.18;49.95
60646;BME280;46462;32.608;-117.032;2023-09-07T00:13:33;99215.84;;;27.20;49.92
60646;BME280;46462;32.608;-117.032;2023-09-07T00:16:04;99216.76;;;27.22;49.98
60646;BME280;46462;32.608;-117.032;2023-09-07T00:18:34;99217.35;;;27.26;50.02
60646;BME280;46462;32.608;-117.032;2023-09-07T00:21:05;99219.43;;;27.32;49.94
60646;BME280;46462;32.608;-117.032;2023-09-07T00:23:35;99219.67;;;27.33;50.16
60646;BME280;46462;32.608;-117.032;2023-09-07T00:26:06;99217.46;;;27.38;50.13
60646;BME280;46462;32.608;-117.032;2023-09-07T00:28:36;99212.95;;;27.42;49.92
60646;BME280;46462;32.608;-117.032;2023-09-07T00:31:07;99210.24;;;27.43;49.96
60646;BME280;46462;32.608;-117.032;2023-09-07T00:33:37;99211.72;;;27.48;49.81
60646;BME280;46462;32.608;-117.032;2023-09-07T00:36:08;99217.17;;;27.51;50.04
60646;BME280;46462;32.608;-117.032;2023-09-07T00:38:39;99219.34;;;27.54;49.83
60646;BME280;46462;32.608;-117.032;2023-09-07T00:41:11;99217.29;;;27.57;49.80
60646;BME280;46462;32.608;-117.032;2023-09-07T00:43:40;99214.01;;;27.62;49.79
60646;BME280;46462;32.608;-117.032;2023-09-07T00:46:11;99212.70;;;27.65;50.16
60646;BME280;46462;32.608;-117.032;2023-09-07T00:48:41;99213.30;;;27.74;49.83
60646;BME280;46462;32.608;-117.032;2023-09-07T00:51:11;99216.88;;;27.76;49.76
60646;BME280;46462;32.608;-117.032;2023-09-07T00:53:42;99219.11;;;27.78;49.82
60646;BME280;46462;32.608;-117.032;2023-09-07T00:56:13;99216.84;;;27.78;49.85
60646;BME280;46462;32.608;-117.032;2023-09-07T00:58:43;99218.96;;;27.81;49.65
60646;BME280;46462;32.608;-117.032;2023-09-07T01:01:14;99223.78;;;27.85;49.67
60646;BME280;46462;32.608;-117.032;2023-09-07T01:03:44;99225.27;;;27.88;49.76
60646;BME280;46462;32.608;-117.032;2023-09-07T01:06:20;99220.89;;;27.92;50.15
60646;BME280;46462;32.608;-117.032;2023-09-07T01:08:49;99218.51;;;27.97;49.72
60646;BME280;46462;32.608;-117.032;2023-09-07T01:11:17;99224.63;;;28.01;49.67
60646;BME280;46462;32.608;-117.032;2023-09-07T01:13:47;99226.47;;;28.03;49.59
60646;BME280;46462;32.608;-117.032;2023-09-07T01:16:17;99225.70;;;28.07;49.51
60646;BME280;46462;32.608;-117.032;2023-09-07T01:18:48;99230.83;;;28.08;49.44
60646;BME280;46462;32.608;-117.032;2023-09-07T01:21:19;99232.21;;;28.10;49.30
60646;BME280;46462;32.608;-117.032;2023-09-07T01:23:49;99235.70;;;28.12;49.33
60646;BME280;46462;32.608;-117.032;2023-09-07T01:26:20;99234.74;;;28.16;49.33
60646;BME280;46462;32.608;-117.032;2023-09-07T01:28:50;99237.02;;;28.25;49.20
60646;BME280;46462;32.608;-117.032;2023-09-07T01:31:21;99235.67;;;28.29;49.18
60646;BME280;46462;32.608;-117.032;2023-09-07T01:33:52;99237.88;;;28.29;49.36
60646;BME280;46462;32.608;-117.032;2023-09-07T01:36:22;99239.46;;;28.28;49.37
60646;BME280;46462;32.608;-117.032;2023-09-07T01:38:53;99239.52;;;28.29;49.40
60646;BME280;46462;32.608;-117.032;2023-09-07T01:41:23;99240.41;;;28.29;49.42
60646;BME280;46462;32.608;-117.032;2023-09-07T01:43:54;99242.18;;;28.29;49.53
60646;BME280;46462;32.608;-117.032;2023-09-07T01:46:25;99241.87;;;28.30;49.59
60646;BME280;46462;32.608;-117.032;2023-09-07T01:48:55;99242.12;;;28.29;49.74
60646;BME280;46462;32.608;-117.032;2023-09-07T01:51:26;99242.09;;;28.29;49.76
60646;BME280;46462;32.608;-117.032;2023-09-07T01:53:56;99241.54;;;28.29;49.78
60646;BME280;46462;32.608;-117.032;2023-09-07T01:56:27;99243.94;;;28.29;49.84
60646;BME280;46462;32.608;-117.032;2023-09-07T01:58:58;99247.33;;;28.29;49.91
60646;BME280;46462;32.608;-117.032;2023-09-07T02:01:31;99250.88;;;28.30;50.05
60646;BME280;46462;32.608;-117.032;2023-09-07T02:03:59;99251.27;;;28.30;50.00
60646;BME280;46462;32.608;-117.032;2023-09-07T02:06:29;99252.46;;;28.29;50.07
60646;BME280;46462;32.608;-117.032;2023-09-07T02:09:00;99252.82;;;28.28;50.02
60646;BME280;46462;32.608;-117.032;2023-09-07T02:11:31;99254.07;;;28.27;50.20
60646;BME280;46462;32.608;-117.032;2023-09-07T02:14:01;99251.46;;;28.25;50.27
60646;BME280;46462;32.608;-117.032;2023-09-07T02:16:32;99250.41;;;28.24;50.33
60646;BME280;46462;32.608;-117.032;2023-09-07T02:19:04;99249.53;;;28.23;50.19
60646;BME280;46462;32.608;-117.032;2023-09-07T02:21:33;99249.00;;;28.25;50.07
60646;BME280;46462;32.608;-117.032;2023-09-07T02:24:04;99251.45;;;28.25;50.04
60646;BME280;46462;32.608;-117.032;2023-09-07T02:26:34;99253.13;;;28.25;49.97
60646;BME280;46462;32.608;-117.032;2023-09-07T02:29:05;99254.77;;;28.25;49.97
60646;BME280;46462;32.608;-117.032;2023-09-07T02:31:36;99256.30;;;28.25;49.97
60646;BME280;46462;32.608;-117.032;2023-09-07T02:34:06;99258.56;;;28.25;49.93
60646;BME280;46462;32.608;-117.032;2023-09-07T02:36:37;99257.11;;;28.25;49.92
60646;BME280;46462;32.608;-117.032;2023-09-07T02:39:07;99256.83;;;28.25;49.90
60646;BME280;46462;32.608;-117.032;2023-09-07T02:41:38;99261.72;;;28.27;49.87
60646;BME280;46462;32.608;-117.032;2023-09-07T02:44:09;99265.01;;;28.27;49.88
60646;BME280;46462;32.608;-117.032;2023-09-07T02:46:39;99270.07;;;28.27;49.93
60646;BME280;46462;32.608;-117.032;2023-09-07T02:49:10;99270.03;;;28.24;49.95
60646;BME280;46462;32.608;-117.032;2023-09-07T02:51:40;99272.04;;;28.24;49.87
60646;BME280;46462;32.608;-117.032;2023-09-07T02:54:11;99274.48;;;28.22;49.92
60646;BME280;46462;32.608;-117.032;2023-09-07T02:56:42;99277.77;;;28.22;49.98
60646;BME280;46462;32.608;-117.032;2023-09-07T02:59:12;99284.22;;;28.20;50.02
60646;BME280;46462;32.608;-117.032;2023-09-07T03:01:43;99286.65;;;28.21;49.94
60646;BME280;46462;32.608;-117.032;2023-09-07T03:04:13;99289.31;;;28.24;49.78
60646;BME280;46462;32.608;-117.032;2023-09-07T03:06:44;99295.54;;;28.25;49.68
60646;BME280;46462;32.608;-117.032;2023-09-07T03:09:15;99297.37;;;28.24;49.67
60646;BME280;46462;32.608;-117.032;2023-09-07T03:11:45;99298.81;;;28.23;49.68
60646;BME280;46462;32.608;-117.032;2023-09-07T03:14:16;99298.94;;;28.21;49.68
60646;BME280;46462;32.608;-117.032;2023-09-07T03:16:47;99297.39;;;28.21;49.63
60646;BME280;46462;32.608;-117.032;2023-09-07T03:19:17;99300.26;;;28.19;49.65
60646;BME280;46462;32.608;-117.032;2023-09-07T03:21:48;99305.66;;;28.20;49.63
60646;BME280;46462;32.608;-117.032;2023-09-07T03:24:18;99306.95;;;28.18;49.54
60646;BME280;46462;32.608;-117.032;2023-09-07T03:26:49;99311.46;;;28.21;49.40
60646;BME280;46462;32.608;-117.032;2023-09-07T03:29:20;99312.08;;;28.23;49.44
60646;BME280;46462;32.608;-117.032;2023-09-07T03:31:50;99313.65;;;28.27;49.19
60646;BME280;46462;32.608;-117.032;2023-09-07T03:34:21;99322.05;;;28.27;49.22
60646;BME280;46462;32.608;-117.032;2023-09-07T03:36:52;99318.14;;;28.28;49.19
60646;BME280;46462;32.608;-117.032;2023-09-07T03:39:22;99320.38;;;28.27;49.15
60646;BME280;46462;32.608;-117.032;2023-09-07T03:41:53;99323.25;;;28.28;49.22
60646;BME280;46462;32.608;-117.032;2023-09-07T03:44:23;99324.96;;;28.28;49.16
60646;BME280;46462;32.608;-117.032;2023-09-07T03:46:54;99326.36;;;28.28;49.09
60646;BME280;46462;32.608;-117.032;2023-09-07T03:49:25;99328.99;;;28.28;49.18
60646;BME280;46462;32.608;-117.032;2023-09-07T03:51:55;99331.21;;;28.29;49.24
60646;BME280;46462;32.608;-117.032;2023-09-07T03:54:26;99333.55;;;28.27;49.26
60646;BME280;46462;32.608;-117.032;2023-09-07T03:56:56;99333.45;;;28.27;49.26
60646;BME280;46462;32.608;-117.032;2023-09-07T03:59:29;99335.87;;;28.26;49.25
60646;BME280;46462;32.608;-117.032;2023-09-07T04:01:58;99334.08;;;28.26;49.19
60646;BME280;46462;32.608;-117.032;2023-09-07T04:04:28;99333.96;;;28.25;49.28
60646;BME280;46462;32.608;-117.032;2023-09-07T04:06:59;99335.88;;;28.24;49.34
60646;BME280;46462;32.608;-117.032;2023-09-07T04:09:29;99334.85;;;28.20;49.43
60646;BME280;46462;32.608;-117.032;2023-09-07T04:12:00;99333.04;;;28.19;49.42
60646;BME280;46462;32.608;-117.032;2023-09-07T04:14:31;99335.93;;;28.17;49.44
60646;BME280;46462;32.608;-117.032;2023-09-07T04:17:01;99341.46;;;28.17;49.39
60646;BME280;46462;32.608;-117.032;2023-09-07T04:19:32;99342.72;;;28.16;49.44
60646;BME280;46462;32.608;-117.032;2023-09-07T04:22:03;99347.88;;;28.17;49.38
60646;BME280;46462;32.608;-117.032;2023-09-07T04:24:33;99347.82;;;28.15;49.39
60646;BME280;46462;32.608;-117.032;2023-09-07T04:27:04;99350.17;;;28.15;49.38
60646;BME280;46462;32.608;-117.032;2023-09-07T04:29:34;99352.04;;;28.15;49.40
60646;BME280;46462;32.608;-117.032;2023-09-07T04:32:05;99349.51;;;28.16;49.34
60646;BME280;46462;32.608;-117.032;2023-09-07T04:34:35;99350.68;;;28.15;49.33
60646;BME280;46462;32.608;-117.032;2023-09-07T04:37:06;99347.35;;;28.15;49.36
60646;BME280;46462;32.608;-117.032;2023-09-07T04:39:37;99344.20;;;28.14;49.37
60646;BME280;46462;32.608;-117.032;2023-09-07T04:42:07;99342.01;;;28.14;49.34
60646;BME280;46462;32.608;-117.032;2023-09-07T04:44:38;99345.03;;;28.13;49.33
60646;BME280;46462;32.608;-117.032;2023-09-07T04:47:09;99346.55;;;28.13;49.41
60646;BME280;46462;32.608;-117.032;2023-09-07T04:49:39;99348.18;;;28.11;49.37
60646;BME280;46462;32.608;-117.032;2023-09-07T04:52:10;99349.82;;;28.11;49.36
60646;BME280;46462;32.608;-117.032;2023-09-07T04:54:40;99351.02;;;28.10;49.42
60646;BME280;46462;32.608;-117.032;2023-09-07T04:57:11;99351.84;;;28.11;49.43
60646;BME280;46462;32.608;-117.032;2023-09-07T04:59:41;99353.09;;;28.10;49.42
60646;BME280;46462;32.608;-117.032;2023-09-07T05:02:12;99355.93;;;28.10;49.37
60646;BME280;46462;32.608;-117.032;2023-09-07T05:04:43;99360.53;;;28.10;49.33
60646;BME280;46462;32.608;-117.032;2023-09-07T05:07:13;99361.77;;;28.10;49.28
60646;BME280;46462;32.608;-117.032;2023-09-07T05:09:44;99365.49;;;28.09;49.28
60646;BME280;46462;32.608;-117.032;2023-09-07T05:12:14;99367.13;;;28.08;49.24
60646;BME280;46462;32.608;-117.032;2023-09-07T05:14:45;99365.71;;;28.08;49.12
60646;BME280;46462;32.608;-117.032;2023-09-07T05:17:16;99363.87;;;28.10;49.05
60646;BME280;46462;32.608;-117.032;2023-09-07T05:19:46;99363.02;;;28.10;49.01
60646;BME280;46462;32.608;-117.032;2023-09-07T05:22:17;99367.66;;;28.11;48.94
60646;BME280;46462;32.608;-117.032;2023-09-07T05:24:47;99367.93;;;28.10;49.02
60646;BME280;46462;32.608;-117.032;2023-09-07T05:27:18;99368.80;;;28.15;48.96
60646;BME280;46462;32.608;-117.032;2023-09-07T05:29:49;99368.23;;;28.13;48.96
60646;BME280;46462;32.608;-117.032;2023-09-07T05:32:19;99365.65;;;28.13;48.88
60646;BME280;46462;32.608;-117.032;2023-09-07T05:34:50;99363.05;;;28.11;48.90
60646;BME280;46462;32.608;-117.032;2023-09-07T05:37:21;99360.16;;;28.11;48.84
60646;BME280;46462;32.608;-117.032;2023-09-07T05:39:51;99365.20;;;28.09;48.84
60646;BME280;46462;32.608;-117.032;2023-09-07T05:42:22;99366.86;;;28.10;48.82
60646;BME280;46462;32.608;-117.032;2023-09-07T05:44:52;99371.87;;;28.08;48.85
60646;BME280;46462;32.608;-117.032;2023-09-07T05:47:23;99375.97;;;28.08;48.84
60646;BME280;46462;32.608;-117.032;2023-09-07T05:49:53;99378.07;;;28.06;48.80
60646;BME280;46462;32.608;-117.032;2023-09-07T05:52:24;99376.73;;;28.07;48.80
60646;BME280;46462;32.608;-117.032;2023-09-07T05:54:55;99378.74;;;28.05;48.77
60646;BME280;46462;32.608;-117.032;2023-09-07T05:57:25;99377.92;;;28.06;48.71
60646;BME280;46462;32.608;-117.032;2023-09-07T05:59:56;99375.75;;;28.05;48.71
60646;BME280;46462;32.608;-117.032;2023-09-07T06:02:27;99373.96;;;28.05;48.58
60646;BME280;46462;32.608;-117.032;2023-09-07T06:04:57;99371.76;;;28.02;48.66
60646;BME280;46462;32.608;-117.032;2023-09-07T06:07:28;99366.70;;;27.99;48.64
60646;BME280;46462;32.608;-117.032;2023-09-07T06:09:58;99363.78;;;27.95;48.73
60646;BME280;46462;32.608;-117.032;2023-09-07T06:12:29;99360.93;;;27.94;48.70
60646;BME280;46462;32.608;-117.032;2023-09-07T06:14:59;99358.14;;;27.91;48.75
60646;BME280;46462;32.608;-117.032;2023-09-07T06:17:30;99354.92;;;27.90;48.73
60646;BME280;46462;32.608;-117.032;2023-09-07T06:20:01;99351.36;;;27.89;48.79
60646;BME280;46462;32.608;-117.032;2023-09-07T06:22:31;99347.32;;;27.90;48.69
60646;BME280;46462;32.608;-117.032;2023-09-07T06:25:02;99346.86;;;27.88;48.77
60646;BME280;46462;32.608;-117.032;2023-09-07T06:27:32;99344.72;;;27.82;48.81
60646;BME280;46462;32.608;-117.032;2023-09-07T06:30:08;99343.51;;;27.79;48.80
60646;BME280;46462;32.608;-117.032;2023-09-07T06:32:38;99344.34;;;27.78;48.87
60646;BME280;46462;32.608;-117.032;2023-09-07T06:35:09;99342.62;;;27.72;48.95
60646;BME280;46462;32.608;-117.032;2023-09-07T06:37:39;99336.43;;;27.72;48.98
60646;BME280;46462;32.608;-117.032;2023-09-07T06:40:11;99339.75;;;27.66;49.11
60646;BME280;46462;32.608;-117.032;2023-09-07T06:42:40;99337.59;;;27.65;49.03
60646;BME280;46462;32.608;-117.032;2023-09-07T06:45:11;99338.28;;;27.55;49.27
60646;BME280;46462;32.608;-117.032;2023-09-07T06:47:42;99336.13;;;27.62;49.18
60646;BME280;46462;32.608;-117.032;2023-09-07T06:50:12;99331.28;;;27.55;49.28
60646;BME280;46462;32.608;-117.032;2023-09-07T06:52:43;99330.11;;;27.56;49.23
60646;BME280;46462;32.608;-117.032;2023-09-07T06:55:13;99326.60;;;27.60;49.13
60646;BME280;46462;32.608;-117.032;2023-09-07T06:57:44;99324.06;;;27.60;49.00
60646;BME280;46462;32.608;-117.032;2023-09-07T07:00:15;99318.41;;;27.59;49.04
60646;BME280;46462;32.608;-117.032;2023-09-07T07:02:45;99314.31;;;27.49;49.13
60646;BME280;46462;32.608;-117.032;2023-09-07T07:05:16;99309.63;;;27.46;49.28
60646;BME280;46462;32.608;-117.032;2023-09-07T07:07:46;99314.95;;;27.49;49.13
60646;BME280;46462;32.608;-117.032;2023-09-07T07:10:17;99319.03;;;27.46;49.10
60646;BME280;46462;32.608;-117.032;2023-09-07T07:12:47;99328.45;;;27.45;49.21
60646;BME280;46462;32.608;-117.032;2023-09-07T07:15:18;99334.52;;;27.44;49.20
60646;BME280;46462;32.608;-117.032;2023-09-07T07:17:49;99339.88;;;27.44;49.07
60646;BME280;46462;32.608;-117.032;2023-09-07T07:20:20;99338.46;;;27.46;49.21
60646;BME280;46462;32.608;-117.032;2023-09-07T07:22:50;99338.20;;;27.51;49.01
60646;BME280;46462;32.608;-117.032;2023-09-07T07:25:21;99336.18;;;27.47;49.01
60646;BME280;46462;32.608;-117.032;2023-09-07T07:27:51;99334.73;;;27.46;49.14
60646;BME280;46462;32.608;-117.032;2023-09-07T07:30:22;99329.28;;;27.52;48.89
60646;BME280;46462;32.608;-117.032;2023-09-07T07:32:52;99325.06;;;27.47;48.92
60646;BME280;46462;32.608;-117.032;2023-09-07T07:35:23;99327.78;;;27.42;49.06
60646;BME280;46462;32.608;-117.032;2023-09-07T07:37:54;99330.50;;;27.51;49.05
60646;BME280;46462;32.608;-117.032;2023-09-07T07:40:24;99329.24;;;27.50;48.82
60646;BME280;46462;32.608;-117.032;2023-09-07T07:42:55;99329.21;;;27.42;49.02
60646;BME280;46462;32.608;-117.032;2023-09-07T07:45:25;99330.57;;;27.45;48.86
60646;BME280;46462;32.608;-117.032;2023-09-07T07:47:56;99332.43;;;27.47;48.78
60646;BME280;46462;32.608;-117.032;2023-09-07T07:50:27;99333.77;;;27.37;49.00
60646;BME280;46462;32.608;-117.032;2023-09-07T07:52:57;99326.38;;;27.41;48.94
60646;BME280;46462;32.608;-117.032;2023-09-07T07:55:28;99321.04;;;27.41;48.75
60646;BME280;46462;32.608;-117.032;2023-09-07T07:57:59;99317.72;;;27.43;48.69
60646;BME280;46462;32.608;-117.032;2023-09-07T08:00:31;99320.53;;;27.47;48.68
60646;BME280;46462;32.608;-117.032;2023-09-07T08:03:00;99312.08;;;27.44;48.65
60646;BME280;46462;32.608;-117.032;2023-09-07T08:05:31;99310.99;;;27.44;48.63
60646;BME280;46462;32.608;-117.032;2023-09-07T08:08:01;99311.94;;;27.41;48.68
60646;BME280;46462;32.608;-117.032;2023-09-07T08:10:34;99314.28;;;27.36;48.59
60646;BME280;46462;32.608;-117.032;2023-09-07T08:13:03;99313.26;;;27.32;48.69
60646;BME280;46462;32.608;-117.032;2023-09-07T08:15:33;99314.14;;;27.36;48.79
60646;BME280;46462;32.608;-117.032;2023-09-07T08:18:04;99315.05;;;27.31;48.76
60646;BME280;46462;32.608;-117.032;2023-09-07T08:20:34;99310.86;;;27.29;48.75
60646;BME280;46462;32.608;-117.032;2023-09-07T08:23:05;99310.17;;;27.41;48.65
60646;BME280;46462;32.608;-117.032;2023-09-07T08:25:35;99311.86;;;27.46;48.43
60646;BME280;46462;32.608;-117.032;2023-09-07T08:28:06;99302.93;;;27.43;48.38
60646;BME280;46462;32.608;-117.032;2023-09-07T08:30:36;99300.05;;;27.35;48.59
60646;BME280;46462;32.608;-117.032;2023-09-07T08:33:07;99298.44;;;27.35;48.62
60646;BME280;46462;32.608;-117.032;2023-09-07T08:35:38;99297.73;;;27.37;48.40
60646;BME280;46462;32.608;-117.032;2023-09-07T08:38:08;99292.10;;;27.40;48.34
60646;BME280;46462;32.608;-117.032;2023-09-07T08:40:39;99289.07;;;27.39;48.24
60646;BME280;46462;32.608;-117.032;2023-09-07T08:43:10;99287.94;;;27.43;48.19
60646;BME280;46462;32.608;-117.032;2023-09-07T08:45:46;99286.94;;;27.41;48.14
60646;BME280;46462;32.608;-117.032;2023-09-07T08:48:12;99286.74;;;27.43;48.12
60646;BME280;46462;32.608;-117.032;2023-09-07T08:50:42;99282.44;;;27.37;48.11
60646;BME280;46462;32.608;-117.032;2023-09-07T08:53:12;99279.03;;;27.24;48.58
60646;BME280;46462;32.608;-117.032;2023-09-07T08:55:43;99279.40;;;27.19;48.47
60646;BME280;46462;32.608;-117.032;2023-09-07T08:58:13;99282.05;;;27.20;48.60
60646;BME280;46462;32.608;-117.032;2023-09-07T09:00:44;99276.55;;;27.20;48.41
60646;BME280;46462;32.608;-117.032;2023-09-07T09:03:14;99273.74;;;27.24;48.31
60646;BME280;46462;32.608;-117.032;2023-09-07T09:05:45;99274.18;;;27.06;48.69
60646;BME280;46462;32.608;-117.032;2023-09-07T09:08:16;99272.23;;;27.02;48.99
60646;BME280;46462;32.608;-117.032;2023-09-07T09:10:46;99268.67;;;27.14;48.59
60646;BME280;46462;32.608;-117.032;2023-09-07T09:15:49;99264.16;;;27.13;48.55
60646;BME280;46462;32.608;-117.032;2023-09-07T09:18:18;99262.27;;;27.07;48.40
60646;BME280;46462;32.608;-117.032;2023-09-07T09:20:49;99260.16;;;27.03;48.56
60646;BME280;46462;32.608;-117.032;2023-09-07T09:23:19;99254.77;;;27.17;48.36
60646;BME280;46462;32.608;-117.032;2023-09-07T09:25:50;99248.88;;;27.27;47.96
60646;BME280;46462;32.608;-117.032;2023-09-07T09:28:21;99248.70;;;27.25;47.69
60646;BME280;46462;32.608;-117.032;2023-09-07T09:30:51;99245.16;;;27.12;48.12
60646;BME280;46462;32.608;-117.032;2023-09-07T09:33:22;99244.60;;;27.23;48.01
60646;BME280;46462;32.608;-117.032;2023-09-07T09:35:53;99243.39;;;27.21;47.90
60646;BME280;46462;32.608;-117.032;2023-09-07T09:38:23;99239.86;;;27.24;47.74
60646;BME280;46462;32.608;-117.032;2023-09-07T09:40:54;99240.21;;;27.14;47.77
60646;BME280;46462;32.608;-117.032;2023-09-07T09:43:25;99243.19;;;27.15;47.80
60646;BME280;46462;32.608;-117.032;2023-09-07T09:45:55;99244.69;;;27.17;47.67
60646;BME280;46462;32.608;-117.032;2023-09-07T09:48:27;99249.57;;;27.04;47.95
60646;BME280;46462;32.608;-117.032;2023-09-07T09:50:56;99253.56;;;27.02;48.07
60646;BME280;46462;32.608;-117.032;2023-09-07T09:53:27;99252.06;;;27.11;47.86
60646;BME280;46462;32.608;-117.032;2023-09-07T09:55:57;99251.35;;;27.14;47.75
60646;BME280;46462;32.608;-117.032;2023-09-07T09:58:28;99252.36;;;27.05;47.87
60646;BME280;46462;32.608;-117.032;2023-09-07T10:00:59;99252.86;;;27.03;47.90
60646;BME280;46462;32.608;-117.032;2023-09-07T10:03:32;99251.36;;;27.03;47.77
60646;BME280;46462;32.608;-117.032;2023-09-07T10:06:09;99252.55;;;27.12;47.63
60646;BME280;46462;32.608;-117.032;2023-09-07T10:08:31;99245.10;;;27.05;47.63
60646;BME280;46462;32.608;-117.032;2023-09-07T10:11:08;99242.07;;;27.03;47.58
60646;BME280;46462;32.608;-117.032;2023-09-07T10:13:33;99241.40;;;26.95;47.84
60646;BME280;46462;32.608;-117.032;2023-09-07T10:16:03;99241.89;;;26.94;47.81
60646;BME280;46462;32.608;-117.032;2023-09-07T10:18:35;99237.80;;;27.02;47.78
60646;BME280;46462;32.608;-117.032;2023-09-07T10:21:04;99233.69;;;27.06;47.68
60646;BME280;46462;32.608;-117.032;2023-09-07T10:23:39;99231.67;;;26.86;47.91
60646;BME280;46462;32.608;-117.032;2023-09-07T10:26:09;99227.91;;;26.95;47.79
60646;BME280;46462;32.608;-117.032;2023-09-07T10:28:35;99230.69;;;27.04;47.52
60646;BME280;46462;32.608;-117.032;2023-09-07T10:31:12;99229.33;;;27.01;47.53
60646;BME280;46462;32.608;-117.032;2023-09-07T10:33:37;99231.17;;;27.00;47.47
60646;BME280;46462;32.608;-117.032;2023-09-07T10:36:07;99233.48;;;26.98;47.50
60646;BME280;46462;32.608;-117.032;2023-09-07T10:38:38;99235.55;;;27.01;47.48
60646;BME280;46462;32.608;-117.032;2023-09-07T10:41:09;99239.13;;;27.05;47.42
60646;BME280;46462;32.608;-117.032;2023-09-07T10:43:47;99240.17;;;26.94;47.56
60646;BME280;46462;32.608;-117.032;2023-09-07T10:46:10;99241.11;;;26.94;47.43
60646;BME280;46462;32.608;-117.032;2023-09-07T10:48:41;99243.07;;;26.97;47.37
60646;BME280;46462;32.608;-117.032;2023-09-07T10:51:11;99241.95;;;26.96;47.41
60646;BME280;46462;32.608;-117.032;2023-09-07T10:53:42;99239.86;;;26.99;47.26
60646;BME280;46462;32.608;-117.032;2023-09-07T10:56:13;99238.82;;;26.86;47.42
60646;BME280;46462;32.608;-117.032;2023-09-07T10:58:43;99240.97;;;26.82;47.38
60646;BME280;46462;32.608;-117.032;2023-09-07T11:01:14;99243.52;;;26.80;47.52
60646;BME280;46462;32.608;-117.032;2023-09-07T11:03:44;99239.68;;;26.82;47.45
60646;BME280;46462;32.608;-117.032;2023-09-07T11:06:17;99239.47;;;26.73;47.63
60646;BME280;46462;32.608;-117.032;2023-09-07T11:08:46;99239.14;;;26.82;47.56
60646;BME280;46462;32.608;-117.032;2023-09-07T11:11:16;99237.73;;;26.79;47.52
60646;BME280;46462;32.608;-117.032;2023-09-07T11:13:47;99236.56;;;26.76;47.47
60646;BME280;46462;32.608;-117.032;2023-09-07T11:16:17;99237.19;;;26.80;47.41
60646;BME280;46462;32.608;-117.032;2023-09-07T11:18:48;99234.55;;;26.80;47.28
60646;BME280;46462;32.608;-117.032;2023-09-07T11:21:19;99235.03;;;26.81;47.32
60646;BME280;46462;32.608;-117.032;2023-09-07T11:23:51;99233.97;;;26.68;47.53
60646;BME280;46462;32.608;-117.032;2023-09-07T11:26:21;99236.97;;;26.76;47.42
60646;BME280;46462;32.608;-117.032;2023-09-07T11:28:50;99235.30;;;26.67;47.45
60646;BME280;46462;32.608;-117.032;2023-09-07T11:31:21;99233.90;;;26.71;47.34
60646;BME280;46462;32.608;-117.032;2023-09-07T11:33:53;99230.82;;;26.67;47.20
60646;BME280;46462;32.608;-117.032;2023-09-07T11:36:22;99231.11;;;26.61;47.47
60646;BME280;46462;32.608;-117.032;2023-09-07T11:38:53;99229.03;;;26.62;47.53
60646;BME280;46462;32.608;-117.032;2023-09-07T11:41:24;99227.73;;;26.63;47.51
60646;BME280;46462;32.608;-117.032;2023-09-07T11:43:54;99230.29;;;26.75;47.44
60646;BME280;46462;32.608;-117.032;2023-09-07T11:46:25;99229.16;;;26.72;47.34
60646;BME280;46462;32.608;-117.032;2023-09-07T11:48:56;99225.55;;;26.77;47.17
60646;BME280;46462;32.608;-117.032;2023-09-07T11:51:26;99226.97;;;26.71;47.07
60646;BME280;46462;32.608;-117.032;2023-09-07T11:53:57;99228.48;;;26.71;47.16
60646;BME280;46462;32.608;-117.032;2023-09-07T11:56:27;99230.13;;;26.66;47.16
60646;BME280;46462;32.608;-117.032;2023-09-07T11:58:58;99231.36;;;26.69;47.05
60646;BME280;46462;32.608;-117.032;2023-09-07T12:01:29;99226.29;;;26.62;47.06
60646;BME280;46462;32.608;-117.032;2023-09-07T12:03:59;99224.92;;;26.55;47.00
60646;BME280;46462;32.608;-117.032;2023-09-07T12:06:30;99232.73;;;26.54;47.20
60646;BME280;46462;32.608;-117.032;2023-09-07T12:09:02;99228.98;;;26.50;47.15
60646;BME280;46462;32.608;-117.032;2023-09-07T12:11:32;99224.37;;;26.49;47.26
60646;BME280;46462;32.608;-117.032;2023-09-07T12:14:02;99220.50;;;26.35;47.32
60646;BME280;46462;32.608;-117.032;2023-09-07T12:16:33;99222.46;;;26.39;47.32
60646;BME280;46462;32.608;-117.032;2023-09-07T12:19:03;99226.18;;;26.39;47.25
60646;BME280;46462;32.608;-117.032;2023-09-07T12:21:34;99229.32;;;26.33;47.18
60646;BME280;46462;32.608;-117.032;2023-09-07T12:24:05;99231.81;;;26.27;47.40
60646;BME280;46462;32.608;-117.032;2023-09-07T12:26:35;99235.14;;;26.22;47.37
60646;BME280;46462;32.608;-117.032;2023-09-07T12:29:06;99239.55;;;26.22;47.50
60646;BME280;46462;32.608;-117.032;2023-09-07T12:31:36;99244.42;;;26.30;47.36
60646;BME280;46462;32.608;-117.032;2023-09-07T12:34:07;99243.44;;;26.41;47.09
60646;BME280;46462;32.608;-117.032;2023-09-07T12:36:38;99243.98;;;26.46;46.65
60646;BME280;46462;32.608;-117.032;2023-09-07T12:39:09;99245.42;;;26.42;46.78
60646;BME280;46462;32.608;-117.032;2023-09-07T12:41:39;99251.01;;;26.30;46.66
60646;BME280;46462;32.608;-117.032;2023-09-07T12:44:10;99252.94;;;26.16;47.02
60646;BME280;46462;32.608;-117.032;2023-09-07T12:46:40;99255.29;;;26.19;47.18
60646;BME280;46462;32.608;-117.032;2023-09-07T12:49:11;99259.31;;;26.32;47.05